Time;durP1;ratioP1;P1;durP2;ratioP2;P2;SDS_P1;SDS_P2;PMS_P1;PMS_P2;Temp;Humidity;BMP_temperature;BMP_pressure;BME280_temperature;BME280_humidity;BME280_pressure;Samples;Min_cycle;Max_cycle;Signal;HPM_P1;HPM_P2
2022/08/19 00:00:16;;;;;;;0.35;0.35;;;17.10;99.90;;;;;;5115805;28;20379;-75
2022/08/19 00:02:42;;;;;;;1.60;0.90;;;17.10;99.90;;;;;;5115624;28;20444;-77
2022/08/19 00:05:10;;;;;;;1.30;0.70;;;17.10;99.90;;;;;;5097991;28;20031;-76
2022/08/19 00:07:37;;;;;;;2.95;0.75;;;17.10;99.90;;;;;;5097875;28;20020;-75
2022/08/19 00:10:07;;;;;;;0.73;0.73;;;17.10;99.90;;;;;;5097666;28;20480;-77
2022/08/19 00:12:33;;;;;;;1.33;0.82;;;17.10;99.90;;;;;;5115920;28;20111;-75
2022/08/19 00:14:59;;;;;;;1.15;0.80;;;17.00;99.90;;;;;;5097596;28;20203;-75
2022/08/19 00:17:25;;;;;;;0.68;0.68;;;17.00;99.90;;;;;;5115795;28;20102;-75
2022/08/19 00:19:51;;;;;;;1.35;0.60;;;17.10;99.90;;;;;;5097645;28;20058;-77
2022/08/19 00:22:17;;;;;;;0.47;0.47;;;17.00;99.90;;;;;;5115991;28;20024;-80
2022/08/19 00:24:45;;;;;;;1.35;1.00;;;17.00;99.90;;;;;;5115789;28;20012;-74
2022/08/19 00:27:11;;;;;;;0.70;0.70;;;17.00;99.90;;;;;;5115781;28;20468;-76
2022/08/19 00:29:37;;;;;;;0.40;0.38;;;17.00;99.90;;;;;;5115877;28;20020;-77
2022/08/19 00:32:04;;;;;;;0.52;0.52;;;17.00;99.90;;;;;;5115876;28;20019;-81
2022/08/19 00:34:29;;;;;;;0.90;0.88;;;17.00;99.90;;;;;;5115809;28;20019;-78
2022/08/19 00:36:56;;;;;;;0.50;0.50;;;17.00;99.90;;;;;;5115582;28;20122;-79
2022/08/19 00:39:22;;;;;;;1.13;1.08;;;16.90;99.90;;;;;;5115154;28;20024;-77
2022/08/19 00:41:49;;;;;;;0.55;0.55;;;16.90;99.90;;;;;;5097017;28;20073;-78
2022/08/19 00:44:14;;;;;;;1.85;0.80;;;16.90;99.90;;;;;;5115697;28;20020;-79
2022/08/19 00:46:43;;;;;;;0.98;0.98;;;16.90;99.90;;;;;;5115284;28;20031;-79
2022/08/19 00:49:32;;;;;;;0.63;0.63;;;16.90;99.90;;;;;;5115185;28;20030;-74
2022/08/19 00:52:20;;;;;;;1.88;0.63;;;16.90;99.90;;;;;;5115346;28;20027;-75
2022/08/19 00:54:47;;;;;;;0.95;0.88;;;16.80;99.90;;;;;;5115139;28;20043;-79
2022/08/19 00:57:16;;;;;;;1.23;0.73;;;16.80;99.90;;;;;;5115196;28;20031;-77
2022/08/19 00:59:45;;;;;;;1.00;0.90;;;16.80;99.90;;;;;;5115028;28;20068;-78
2022/08/19 01:02:12;;;;;;;8.05;1.23;;;16.80;99.90;;;;;;5096989;28;20035;-81
2022/08/19 01:04:38;;;;;;;4.03;1.13;;;16.80;99.90;;;;;;5114997;28;20019;-74
2022/08/19 01:07:04;;;;;;;0.28;0.28;;;16.80;99.90;;;;;;5114998;28;20149;-75
2022/08/19 01:09:30;;;;;;;0.40;0.40;;;16.80;99.90;;;;;;5114918;28;20028;-74
2022/08/19 01:11:56;;;;;;;2.78;1.08;;;16.80;99.90;;;;;;5114814;28;20063;-78
2022/08/19 01:14:22;;;;;;;2.20;0.80;;;16.90;99.90;;;;;;5115111;28;20019;-74
2022/08/19 01:16:49;;;;;;;0.98;0.65;;;16.80;99.90;;;;;;5114664;28;20088;-74
2022/08/19 01:19:29;;;;;;;1.80;1.63;;;16.80;99.90;;;;;;5120663;28;20000;-78
2022/08/19 01:21:57;;;;;;;;;;;16.80;99.90;;;;;;5118133;28;20482;-74
2022/08/19 01:24:23;;;;;;;4.20;0.98;;;16.70;99.90;;;;;;5115664;28;19904;-72
2022/08/19 01:26:48;;;;;;;0.73;0.73;;;16.80;99.90;;;;;;5114757;28;20064;-74
2022/08/19 01:29:14;;;;;;;0.73;0.70;;;16.80;99.90;;;;;;5116304;28;20110;-73
2022/08/19 01:31:40;;;;;;;0.40;0.40;;;16.80;99.90;;;;;;5098726;28;20016;-73
2022/08/19 01:34:06;;;;;;;0.85;0.85;;;16.70;99.90;;;;;;5117323;28;20039;-73
2022/08/19 01:36:35;;;;;;;1.25;0.75;;;16.70;99.90;;;;;;5118019;28;20040;-72
2022/08/19 01:39:05;;;;;;;0.70;0.47;;;16.70;99.90;;;;;;5098939;28;20471;-73
2022/08/19 01:41:30;;;;;;;;;;;16.70;99.90;;;;;;5128520;28;20030;-73
2022/08/19 01:43:56;;;;;;;0.75;0.68;;;16.60;99.90;;;;;;5130919;28;19905;-73
2022/08/19 01:46:22;;;;;;;5.72;0.75;;;16.60;99.90;;;;;;5131556;28;20094;-75
2022/08/19 01:48:48;;;;;;;1.27;0.47;;;16.60;99.90;;;;;;5130008;28;20048;-75
2022/08/19 01:51:14;;;;;;;0.77;0.77;;;16.60;99.90;;;;;;5126286;28;20083;-77
2022/08/19 01:53:41;;;;;;;0.75;0.75;;;16.60;99.90;;;;;;5124740;28;20048;-79
2022/08/19 01:56:07;;;;;;;1.52;0.73;;;16.60;99.90;;;;;;5123943;28;20031;-75
2022/08/19 01:58:41;;;;;;;2.72;0.80;;;16.60;99.90;;;;;;5119282;28;20028;-74
2022/08/19 02:01:07;;;;;;;0.57;0.57;;;16.60;99.90;;;;;;5118500;28;20028;-72
2022/08/19 02:03:34;;;;;;;0.88;0.70;;;16.60;99.90;;;;;;5119207;28;20368;-79
2022/08/19 02:06:05;;;;;;;1.23;0.43;;;16.60;99.90;;;;;;5121537;28;20019;-78
2022/08/19 02:08:33;;;;;;;1.25;1.15;;;16.70;99.90;;;;;;5132785;28;20003;-72
2022/08/19 02:10:58;;;;;;;0.47;0.47;;;16.70;99.90;;;;;;5131033;28;20034;-86
2022/08/19 02:13:25;;;;;;;1.00;0.93;;;16.60;99.90;;;;;;5117128;28;20437;-83
2022/08/19 02:15:50;;;;;;;1.38;1.27;;;16.60;99.90;;;;;;5125465;28;20083;-74
2022/08/19 02:18:16;;;;;;;0.75;0.40;;;16.60;99.90;;;;;;5129794;28;20024;-72
2022/08/19 02:20:44;;;;;;;0.73;0.73;;;16.60;99.90;;;;;;5127138;28;20508;-76
2022/08/19 02:23:11;;;;;;;1.13;1.02;;;16.60;99.90;;;;;;5123969;28;20102;-73
2022/08/19 02:25:38;;;;;;;0.30;0.30;;;16.50;99.90;;;;;;5114483;28;20019;-75
2022/08/19 02:28:04;;;;;;;0.60;0.60;;;16.50;99.90;;;;;;5126039;28;20024;-81
2022/08/19 02:30:30;;;;;;;0.50;0.50;;;16.50;99.90;;;;;;5114808;28;20028;-73
2022/08/19 02:32:57;;;;;;;0.40;0.40;;;16.50;99.90;;;;;;5114232;28;20494;-82
2022/08/19 02:35:23;;;;;;;1.05;0.57;;;16.40;99.90;;;;;;5113625;28;20036;-78
2022/08/19 02:40:34;;;;;;;1.00;1.00;;;16.50;99.90;;;;;;5113946;28;20055;-74
2022/08/19 02:43:07;;;;;;;1.98;0.95;;;16.50;99.90;;;;;;5113791;28;20536;-82
2022/08/19 02:45:38;;;;;;;2.53;1.70;;;16.50;99.90;;;;;;5113796;28;20426;-83
2022/08/19 02:48:04;;;;;;;4.40;1.08;;;16.50;99.90;;;;;;5095678;28;20035;-80
2022/08/19 02:50:31;;;;;;;1.00;1.00;;;16.50;99.90;;;;;;5113802;28;20023;-77
2022/08/19 02:52:57;;;;;;;0.50;0.50;;;16.40;99.90;;;;;;5113493;28;20039;-74
2022/08/19 02:55:22;;;;;;;2.10;1.13;;;16.40;99.90;;;;;;5113463;28;20034;-80
2022/08/19 02:57:48;;;;;;;1.27;0.95;;;16.50;99.90;;;;;;5095220;28;20027;-77
2022/08/19 03:00:15;;;;;;;1.05;1.05;;;16.50;99.90;;;;;;5113614;28;20030;-73
2022/08/19 03:02:40;;;;;;;3.03;0.80;;;16.40;99.90;;;;;;5113767;27;20034;-74
2022/08/19 03:05:09;;;;;;;1.55;1.45;;;16.40;99.90;;;;;;5117736;28;20027;-82
2022/08/19 03:07:35;;;;;;;2.35;2.20;;;16.40;99.90;;;;;;5117578;28;20030;-74
2022/08/19 03:10:01;;;;;;;2.65;1.75;;;16.50;99.90;;;;;;5117359;28;20051;-77
2022/08/19 03:12:26;;;;;;;1.80;0.75;;;16.50;99.90;;;;;;5117401;28;20023;-77
2022/08/19 03:14:53;;;;;;;1.67;1.00;;;;;;;;;;5099011;28;20111;-80
2022/08/19 03:17:19;;;;;;;3.60;0.93;;;16.50;99.90;;;;;;5099034;28;20020;-81
2022/08/19 03:19:45;;;;;;;6.28;1.00;;;16.60;99.90;;;;;;5117243;28;20028;-74
2022/08/19 03:22:10;;;;;;;1.33;0.90;;;16.60;99.90;;;;;;5117363;28;20114;-79
2022/08/19 03:24:37;;;;;;;2.30;0.93;;;16.50;99.90;;;;;;5117118;28;20375;-73
2022/08/19 03:27:04;;;;;;;1.65;0.80;;;16.60;99.90;;;;;;5117480;28;20020;-80
2022/08/19 03:29:31;;;;;;;1.42;0.95;;;16.50;99.90;;;;;;5098707;28;20092;-74
2022/08/19 03:32:03;;;;;;;1.17;1.08;;;16.50;99.90;;;;;;5116914;28;20020;-75
2022/08/19 03:34:30;;;;;;;1.10;1.10;;;16.50;99.90;;;;;;5116848;28;20038;-73
2022/08/19 03:36:58;;;;;;;1.35;1.20;;;16.60;99.90;;;;;;5116878;28;20383;-80
2022/08/19 03:39:25;;;;;;;0.85;0.65;;;16.60;99.90;;;;;;5098642;28;20482;-83
2022/08/19 03:41:59;;;;;;;0.70;0.70;;;16.60;99.90;;;;;;5117079;28;20063;-81
2022/08/19 03:44:25;;;;;;;1.23;1.13;;;16.60;99.90;;;;;;5116795;28;20110;-73
2022/08/19 03:46:55;;;;;;;1.10;1.00;;;16.50;99.90;;;;;;5116977;28;20035;-76
2022/08/19 03:49:23;;;;;;;2.28;1.38;;;16.60;99.90;;;;;;5098549;28;20077;-72
2022/08/19 03:51:50;;;;;;;0.75;0.68;;;16.60;99.90;;;;;;5098284;28;20108;-81
2022/08/19 03:54:19;;;;;;;0.68;0.68;;;16.60;99.90;;;;;;5098325;28;20044;-79
2022/08/19 03:56:46;;;;;;;0.93;0.70;;;16.60;99.90;;;;;;5116696;28;20031;-73
2022/08/19 03:59:15;;;;;;;0.80;0.77;;;16.60;99.90;;;;;;5117729;28;20039;-73
2022/08/19 04:01:42;;;;;;;2.05;1.05;;;16.60;99.90;;;;;;5118922;28;20024;-74
2022/08/19 04:04:07;;;;;;;1.08;1.00;;;16.60;99.90;;;;;;5116527;28;20503;-76
2022/08/19 04:06:35;;;;;;;1.33;1.23;;;16.60;99.90;;;;;;5116251;28;20024;-74
2022/08/19 04:09:04;;;;;;;0.93;0.93;;;16.70;99.90;;;;;;5115965;28;20019;-73
2022/08/19 04:11:41;;;;;;;1.05;0.98;;;16.60;99.90;;;;;;5116067;28;20023;-79
2022/08/19 04:14:07;;;;;;;0.52;0.52;;;16.60;99.90;;;;;;5115631;28;20031;-80
2022/08/19 04:16:33;;;;;;;0.65;0.65;;;16.60;99.90;;;;;;5115654;28;20043;-77
2022/08/19 04:19:05;;;;;;;3.75;0.98;;;16.60;99.90;;;;;;5097781;28;20019;-76
2022/08/19 04:21:31;;;;;;;2.35;1.17;;;16.60;99.90;;;;;;5116328;28;20019;-81
2022/08/19 04:23:57;;;;;;;2.30;1.13;;;16.70;99.90;;;;;;5121853;28;20052;-73
2022/08/19 04:26:31;;;;;;;1.75;1.38;;;16.70;99.90;;;;;;5097623;28;20495;-73
2022/08/19 04:28:58;;;;;;;0.57;0.57;;;16.70;99.90;;;;;;5116103;28;20469;-73
2022/08/19 04:31:27;;;;;;;1.90;1.48;;;16.70;99.90;;;;;;5115705;28;20028;-78
2022/08/19 04:33:58;;;;;;;0.70;0.70;;;16.60;99.90;;;;;;5116150;28;20034;-80
2022/08/19 04:36:26;;;;;;;1.23;0.75;;;16.60;99.90;;;;;;5123627;28;20036;-73
2022/08/19 04:38:57;;;;;;;1.13;1.13;;;16.60;99.90;;;;;;5126169;28;20060;-73
2022/08/19 04:44:09;;;;;;;1.23;1.20;;;16.60;99.90;;;;;;5115614;28;20077;-75
2022/08/19 04:46:35;;;;;;;1.35;1.25;;;16.50;99.90;;;;;;5118147;28;20016;-75
2022/08/19 04:49:04;;;;;;;1.60;1.17;;;16.60;99.90;;;;;;5129660;28;20024;-76
2022/08/19 04:51:31;;;;;;;2.30;1.25;;;16.60;99.90;;;;;;5129730;28;20083;-79
2022/08/19 04:53:57;;;;;;;1.65;1.55;;;16.60;99.90;;;;;;5126966;28;20053;-72
2022/08/19 04:56:25;;;;;;;0.65;0.65;;;16.60;99.90;;;;;;5128086;28;20070;-72
2022/08/19 04:58:52;;;;;;;3.35;1.50;;;16.60;99.90;;;;;;5118163;28;20031;-72
2022/08/19 05:01:20;;;;;;;1.75;1.65;;;16.50;99.90;;;;;;5117201;28;20020;-73
2022/08/19 05:03:46;;;;;;;1.15;1.15;;;16.60;99.90;;;;;;5117019;28;20063;-72
2022/08/19 05:06:14;;;;;;;2.35;1.77;;;16.60;99.90;;;;;;5117464;28;20018;-73
2022/08/19 05:08:43;;;;;;;0.80;0.80;;;16.70;99.90;;;;;;5121892;28;20020;-72
2022/08/19 05:11:24;;;;;;;1.85;1.33;;;16.70;99.90;;;;;;5119021;28;20020;-72
2022/08/19 05:13:50;;;;;;;1.05;1.02;;;16.80;99.90;;;;;;5127679;28;20032;-79
2022/08/19 05:16:19;;;;;;;0.70;0.65;;;16.90;99.90;;;;;;5129329;28;20062;-75
2022/08/19 05:24:15;;;;;;;1.45;0.95;;;17.00;99.90;;;;;;5128038;28;20030;-71
2022/08/19 05:26:47;;;;;;;1.85;1.75;;;17.00;99.90;;;;;;5110077;28;20027;-72
2022/08/19 05:29:16;;;;;;;3.30;1.17;;;17.00;99.90;;;;;;5128722;28;20020;-76
2022/08/19 05:31:42;;;;;;;2.20;0.82;;;17.10;99.90;;;;;;5129215;28;20030;-72
2022/08/19 05:34:09;;;;;;;3.28;1.25;;;17.10;99.90;;;;;;5108923;28;20008;-72
2022/08/19 05:36:41;;;;;;;1.67;1.27;;;17.10;99.90;;;;;;5127009;28;20052;-72
2022/08/19 05:39:08;;;;;;;1.27;0.85;;;17.10;99.90;;;;;;5110802;28;20038;-73
2022/08/19 05:41:34;;;;;;;2.10;1.40;;;17.20;99.90;;;;;;5112171;28;20443;-76
2022/08/19 05:44:09;;;;;;;1.17;1.17;;;17.10;99.90;;;;;;5128526;28;20024;-71
2022/08/19 05:46:39;;;;;;;1.27;1.27;;;17.20;99.90;;;;;;5126953;28;20102;-74
2022/08/19 05:49:06;;;;;;;2.95;1.20;;;17.20;99.90;;;;;;5128722;28;20081;-73
2022/08/19 05:51:33;;;;;;;5.25;2.33;;;17.30;99.90;;;;;;5129651;28;20045;-71
2022/08/19 05:54:04;;;;;;;1.73;1.60;;;17.30;99.90;;;;;;5131107;28;20034;-74
2022/08/19 05:56:30;;;;;;;2.25;1.75;;;17.30;99.90;;;;;;5131122;28;20011;-72
2022/08/19 05:58:58;;;;;;;3.28;0.82;;;17.40;99.90;;;;;;5133406;28;20059;-71
2022/08/19 06:01:24;;;;;;;0.95;0.90;;;17.40;99.90;;;;;;5135514;28;20031;-71
2022/08/19 06:03:50;;;;;;;1.50;1.48;;;17.40;99.90;;;;;;5116556;28;20072;-71
2022/08/19 06:06:16;;;;;;;1.42;1.33;;;17.40;99.90;;;;;;5131133;28;20047;-71
2022/08/19 06:08:44;;;;;;;1.42;1.08;;;17.40;99.90;;;;;;5130831;28;20031;-71
2022/08/19 06:11:13;;;;;;;1.17;0.95;;;17.40;99.90;;;;;;5130910;28;20102;-71
2022/08/19 06:13:39;;;;;;;2.17;1.33;;;17.40;99.90;;;;;;5131240;28;20007;-71
2022/08/19 06:16:05;;;;;;;2.60;1.92;;;17.40;99.90;;;;;;5133907;28;20043;-72
2022/08/19 06:18:31;;;;;;;1.95;1.85;;;17.40;99.90;;;;;;5132661;28;20055;-72
2022/08/19 06:20:57;;;;;;;1.60;1.50;;;17.40;99.90;;;;;;5132398;28;20118;-71
2022/08/19 06:23:23;;;;;;;4.20;2.47;;;17.40;99.90;;;;;;5132549;28;20024;-71
2022/08/19 06:25:49;;;;;;;3.47;2.35;;;17.40;99.90;;;;;;5128958;28;20034;-72
2022/08/19 06:28:14;;;;;;;1.98;1.77;;;17.50;99.90;;;;;;5126564;28;20106;-72
2022/08/19 06:30:40;;;;;;;2.95;1.77;;;17.50;99.90;;;;;;5127566;28;20444;-71
2022/08/19 06:33:06;;;;;;;1.05;1.05;;;17.50;99.90;;;;;;5108736;28;20079;-72
2022/08/19 06:35:31;;;;;;;1.63;1.52;;;17.50;99.90;;;;;;5130373;28;20027;-72
2022/08/19 06:37:57;;;;;;;1.40;1.20;;;17.60;99.90;;;;;;5131281;28;20027;-72
2022/08/19 06:40:23;;;;;;;1.55;1.45;;;17.60;99.90;;;;;;5118181;28;20130;-71
2022/08/19 06:42:48;;;;;;;1.63;0.80;;;17.60;99.90;;;;;;5131102;28;20012;-72
2022/08/19 06:45:14;;;;;;;2.05;1.00;;;17.60;99.90;;;;;;5131724;28;20012;-71
2022/08/19 06:47:41;;;;;;;1.00;0.98;;;17.60;99.90;;;;;;5133404;28;20464;-72
2022/08/19 06:50:07;;;;;;;2.40;1.02;;;17.70;99.90;;;;;;5130392;28;20051;-71
2022/08/19 06:52:34;;;;;;;1.60;1.38;;;17.60;99.90;;;;;;5112985;28;20073;-72
2022/08/19 06:55:01;;;;;;;1.92;1.73;;;17.60;99.90;;;;;;5126682;28;20051;-82
2022/08/19 06:57:28;;;;;;;1.95;1.27;;;17.70;99.90;;;;;;5101687;28;20023;-75
2022/08/19 06:59:55;;;;;;;1.52;1.48;;;17.70;99.90;;;;;;5131849;28;20054;-73
2022/08/19 07:02:26;;;;;;;3.78;2.55;;;17.70;99.90;;;;;;5111240;28;20024;-74
2022/08/19 07:04:52;;;;;;;1.65;1.55;;;17.70;99.90;;;;;;5135410;28;20050;-71
2022/08/19 07:07:18;;;;;;;2.03;1.83;;;17.70;99.90;;;;;;5136487;28;20023;-71
2022/08/19 07:09:44;;;;;;;7.07;2.10;;;17.70;99.90;;;;;;5135026;28;20023;-72
2022/08/19 07:12:13;;;;;;;1.67;1.48;;;17.80;99.90;;;;;;5133329;28;20019;-71
2022/08/19 07:14:39;;;;;;;1.58;1.42;;;17.80;99.90;;;;;;5126600;28;20149;-70
2022/08/19 07:17:09;;;;;;;4.20;1.98;;;17.90;99.90;;;;;;5132631;28;20503;-71
2022/08/19 07:19:35;;;;;;;1.05;0.98;;;18.00;99.90;;;;;;5132222;28;20027;-71
2022/08/19 07:22:05;;;;;;;2.30;1.40;;;18.10;99.90;;;;;;5133764;28;20041;-70
2022/08/19 07:24:31;;;;;;;2.28;1.88;;;18.10;99.90;;;;;;5132170;28;20020;-70
2022/08/19 07:27:02;;;;;;;1.63;1.52;;;18.20;99.90;;;;;;5119453;28;20353;-79
2022/08/19 07:29:32;;;;;;;3.42;2.30;;;18.30;99.90;;;;;;5109200;28;20024;-70
2022/08/19 07:31:59;;;;;;;2.75;2.13;;;18.30;99.90;;;;;;5137230;28;20024;-70
2022/08/19 07:34:27;;;;;;;1.45;1.42;;;18.40;99.90;;;;;;5132700;28;20050;-71
2022/08/19 07:36:53;;;;;;;1.60;1.38;;;18.40;99.90;;;;;;5124550;28;20032;-84
2022/08/19 07:39:29;;;;;;;3.67;2.20;;;18.50;99.90;;;;;;5120733;28;20016;-73
2022/08/19 07:41:56;;;;;;;4.10;2.25;;;18.60;99.90;;;;;;5123657;28;20020;-86
2022/08/19 07:44:22;;;;;;;4.63;1.70;;;18.60;99.90;;;;;;5117266;28;20020;-84
2022/08/19 07:46:52;;;;;;;2.47;1.80;;;18.60;99.90;;;;;;5099049;28;20123;-85
2022/08/19 07:49:19;;;;;;;1.83;1.73;;;18.60;99.90;;;;;;5117194;28;20073;-89
2022/08/19 07:51:52;;;;;;;3.95;2.17;;;18.60;99.90;;;;;;5117031;28;20023;-78
2022/08/19 07:54:19;;;;;;;2.20;1.92;;;18.70;99.90;;;;;;5116872;28;20039;-89
2022/08/19 07:56:45;;;;;;;1.88;1.10;;;18.70;99.90;;;;;;5119372;28;20032;-80
2022/08/19 07:59:12;;;;;;;2.58;1.50;;;18.80;99.90;;;;;;5117293;28;20088;-73
2022/08/19 08:01:39;;;;;;;2.47;2.08;;;18.80;99.90;;;;;;5116925;28;20088;-87
2022/08/19 08:09:39;;;;;;;1.95;1.60;;;19.00;99.90;;;;;;5118516;28;20403;-72
2022/08/19 08:12:13;;;;;;;1.25;1.15;;;19.10;99.90;;;;;;5126168;28;20020;-90
2022/08/19 08:14:42;;;;;;;2.53;2.33;;;19.10;99.90;;;;;;5100423;28;20023;-87
2022/08/19 08:17:09;;;;;;;2.17;1.08;;;19.10;99.90;;;;;;5100557;28;20032;-79
2022/08/19 08:19:35;;;;;;;2.85;1.88;;;19.20;99.90;;;;;;5119730;28;20028;-82
2022/08/19 08:22:02;;;;;;;1.73;1.17;;;19.10;99.90;;;;;;5122489;28;20024;-82
2022/08/19 08:24:30;;;;;;;4.70;1.98;;;19.10;99.90;;;;;;5122620;28;20024;-80
2022/08/19 08:26:58;;;;;;;2.10;1.75;;;19.20;99.90;;;;;;5122517;28;20072;-72
2022/08/19 08:29:27;;;;;;;2.97;2.72;;;19.30;99.90;;;;;;5100409;28;20152;-89
2022/08/19 08:31:53;;;;;;;2.30;2.08;;;19.30;99.90;;;;;;5119073;28;20172;-88
2022/08/19 08:34:19;;;;;;;3.80;2.08;;;19.40;99.90;;;;;;5116776;28;20023;-87
2022/08/19 08:36:46;;;;;;;1.65;1.50;;;19.50;99.90;;;;;;5116144;28;20036;-88
2022/08/19 08:39:17;;;;;;;4.95;2.85;;;19.60;99.90;;;;;;5116001;28;20050;-72
2022/08/19 08:41:46;;;;;;;1.48;1.38;;;19.60;99.90;;;;;;5116028;28;20024;-77
2022/08/19 08:44:18;;;;;;;2.47;2.28;;;19.50;99.90;;;;;;5116160;28;20080;-87
2022/08/19 08:46:49;;;;;;;4.50;1.92;;;19.70;99.90;;;;;;5097419;28;20024;-75
2022/08/19 08:49:26;;;;;;;1.48;0.80;;;19.80;99.90;;;;;;5097565;28;20522;-86
2022/08/19 08:52:34;;;;;;;2.42;1.65;;;20.00;99.90;;;;;;5115575;28;20031;-72
2022/08/19 08:55:06;;;;;;;2.28;1.73;;;20.10;99.90;;;;;;5072467;28;20399;-88
2022/08/19 08:57:43;;;;;;;2.30;1.33;;;20.40;99.90;;;;;;5115684;28;20127;-74
2022/08/19 09:00:18;;;;;;;1.65;1.17;;;20.50;99.90;;;;;;5115866;28;20023;-72
2022/08/19 09:02:44;;;;;;;1.35;0.88;;;20.50;99.90;;;;;;5115395;28;20495;-89
2022/08/19 09:05:12;;;;;;;2.10;1.02;;;20.50;99.90;;;;;;5097480;28;20035;-75
2022/08/19 09:07:56;;;;;;;1.95;1.73;;;20.50;99.90;;;;;;5115416;28;20106;-88
2022/08/19 09:10:36;;;;;;;4.03;2.47;;;20.50;99.90;;;;;;5115637;28;20019;-89
2022/08/19 09:13:36;;;;;;;4.90;1.40;;;20.50;99.90;;;;;;5115565;28;20019;-75
2022/08/19 09:16:15;;;;;;;2.20;2.08;;;20.70;99.90;;;;;;5088966;28;20043;-72
2022/08/19 09:18:42;;;;;;;;;;;20.60;99.90;;;;;;5115971;28;20097;-88
2022/08/19 09:21:08;;;;;;;2.10;1.88;;;20.70;99.90;;;;;;5115938;28;19927;-73
2022/08/19 09:23:36;;;;;;;1.08;1.08;;;20.90;99.90;;;;;;5115584;28;20476;-72
2022/08/19 09:26:13;;;;;;;3.03;2.22;;;21.20;99.90;;;;;;5115781;28;20059;-75
2022/08/19 09:28:41;;;;;;;3.67;2.05;;;21.50;99.90;;;;;;5114881;28;20026;-72
2022/08/19 09:31:06;;;;;;;1.90;1.63;;;21.80;99.90;;;;;;5115094;28;20372;-86
2022/08/19 09:33:32;;;;;;;4.30;3.00;;;22.30;99.90;;;;;;5118303;28;20482;-83
2022/08/19 09:36:04;;;;;;;2.13;1.95;;;22.10;99.90;;;;;;5097212;28;20502;-83
2022/08/19 09:38:29;;;;;;;2.50;2.03;;;21.90;99.90;;;;;;5096913;28;20031;-87
2022/08/19 09:40:55;;;;;;;3.00;2.58;;;21.40;99.90;;;;;;5115092;28;20020;-80
2022/08/19 09:43:21;;;;;;;2.13;2.03;;;21.50;99.90;;;;;;5114539;28;20023;-73
2022/08/19 09:45:47;;;;;;;3.42;2.10;;;;;;;;;;5096463;28;20031;-72
2022/08/19 09:48:13;;;;;;;2.78;2.58;;;21.40;99.90;;;;;;5096718;28;20034;-78
2022/08/19 09:50:39;;;;;;;4.45;1.75;;;21.10;99.90;;;;;;5096731;28;20016;-82
2022/08/19 09:53:07;;;;;;;2.28;2.03;;;20.90;99.90;;;;;;5096313;28;20051;-85
2022/08/19 09:55:32;;;;;;;1.77;1.60;;;21.00;99.90;;;;;;5114425;28;20032;-76
2022/08/19 09:58:00;;;;;;;4.45;2.60;;;21.10;99.90;;;;;;5096746;28;20023;-88
2022/08/19 10:00:26;;;;;;;7.97;3.97;;;21.10;99.90;;;;;;5114721;28;20019;-79
2022/08/19 10:02:52;;;;;;;2.92;2.63;;;21.10;99.90;;;;;;5114303;28;20019;-72
2022/08/19 10:08:01;;;;;;;3.05;2.78;;;20.90;99.90;;;;;;5114152;28;20038;-86
2022/08/19 10:10:27;;;;;;;5.22;3.20;;;20.90;99.90;;;;;;5114420;28;20020;-77
2022/08/19 10:12:54;;;;;;;3.20;2.15;;;20.70;99.90;;;;;;5113583;28;20023;-74
2022/08/19 10:15:20;;;;;;;5.00;2.90;;;20.60;99.90;;;;;;5096123;28;20111;-75
2022/08/19 10:17:47;;;;;;;3.05;2.75;;;20.50;99.90;;;;;;5114196;28;20062;-79
2022/08/19 10:20:12;;;;;;;7.75;2.47;;;20.40;99.90;;;;;;5096728;28;20019;-91
2022/08/19 10:22:39;;;;;;;3.35;3.00;;;20.30;99.90;;;;;;5114884;28;20087;-87
2022/08/19 10:25:06;;;;;;;3.90;2.72;;;20.20;99.90;;;;;;5114682;28;20028;-89
2022/08/19 10:27:31;;;;;;;2.42;2.22;;;20.20;99.90;;;;;;5114496;28;20022;-90
2022/08/19 10:29:57;;;;;;;2.22;1.85;;;20.20;99.90;;;;;;5114690;28;20130;-91
2022/08/19 10:32:24;;;;;;;4.68;2.60;;;20.20;99.90;;;;;;5115238;28;20383;-90
2022/08/19 10:34:52;;;;;;;4.43;3.80;;;20.20;99.90;;;;;;5117918;28;20004;-75
2022/08/19 10:37:18;;;;;;;4.07;3.47;;;20.10;99.90;;;;;;5101458;28;20043;-72
2022/08/19 10:39:47;;;;;;;5.10;3.08;;;20.20;99.90;;;;;;5114554;28;20483;-85
2022/08/19 10:42:13;;;;;;;;;;;20.20;99.90;;;;;;5097866;28;20547;-72
2022/08/19 10:44:39;;;;;;;2.60;2.47;;;20.30;99.90;;;;;;5097000;28;19947;-90
2022/08/19 10:47:05;;;;;;;2.72;2.47;;;20.40;99.90;;;;;;5119143;28;20103;-73
2022/08/19 10:49:32;;;;;;;3.28;1.95;;;20.40;99.90;;;;;;5116656;28;20094;-81
2022/08/19 10:57:31;;;;;;;4.72;1.98;;;21.00;99.90;;;;;;5114033;28;20043;-91
2022/08/19 10:59:57;;;;;;;2.45;2.03;;;21.00;99.90;;;;;;5113894;28;20472;-83
2022/08/19 11:02:22;;;;;;;3.88;3.00;;;21.10;99.90;;;;;;5096196;28;20039;-77
2022/08/19 11:04:49;;;;;;;4.18;2.75;;;21.20;99.90;;;;;;5113877;28;20383;-73
2022/08/19 11:07:15;;;;;;;4.03;2.78;;;21.20;99.90;;;;;;5113562;28;20020;-73
2022/08/19 11:09:42;;;;;;;6.65;2.25;;;21.20;99.90;;;;;;5113698;28;20068;-73
2022/08/19 11:12:09;;;;;;;3.75;2.58;;;21.10;99.90;;;;;;5113964;28;20059;-77
2022/08/19 11:14:35;;;;;;;3.00;2.50;;;21.00;99.90;;;;;;5114429;28;20020;-79
2022/08/19 11:17:01;;;;;;;7.18;3.63;;;21.10;99.90;;;;;;5114117;28;20035;-76
2022/08/19 11:19:27;;;;;;;2.92;2.67;;;21.00;99.90;;;;;;5096065;28;20027;-82
2022/08/19 11:21:54;;;;;;;6.10;3.25;;;21.00;99.90;;;;;;5113874;28;20397;-79
2022/08/19 11:24:25;;;;;;;3.40;2.45;;;21.00;99.90;;;;;;5096837;28;20020;-76
2022/08/19 11:26:59;;;;;;;3.97;2.53;;;21.00;99.90;;;;;;5117560;28;20088;-72
2022/08/19 11:29:27;;;;;;;3.78;1.90;;;21.20;99.90;;;;;;5099327;28;20043;-79
2022/08/19 11:31:53;;;;;;;2.53;2.28;;;21.20;99.90;;;;;;5120190;28;20023;-88
2022/08/19 11:34:22;;;;;;;4.40;2.45;;;21.10;99.90;;;;;;5119662;28;20034;-91
2022/08/19 11:36:49;;;;;;;4.05;2.92;;;21.20;99.90;;;;;;5120354;28;20027;-72
2022/08/19 11:39:17;;;;;;;2.60;2.40;;;21.30;99.90;;;;;;5100479;28;20036;-80
2022/08/19 11:41:42;;;;;;;4.13;2.65;;;21.40;99.90;;;;;;5102050;28;20521;-73
2022/08/19 11:44:08;;;;;;;4.60;3.03;;;21.50;99.90;;;;;;5100065;28;20023;-86
2022/08/19 11:46:37;;;;;;;4.90;3.05;;;21.70;99.90;;;;;;5117928;28;20051;-75
2022/08/19 11:49:04;;;;;;;3.67;2.67;;;21.90;99.90;;;;;;5117253;28;20454;-82
2022/08/19 11:51:30;;;;;;;4.18;2.05;;;22.00;99.90;;;;;;5117845;28;20024;-82
2022/08/19 11:53:58;;;;;;;4.28;2.10;;;22.10;99.90;;;;;;5120408;28;20140;-89
2022/08/19 11:56:25;;;;;;;1.98;1.50;;;22.50;99.90;;;;;;5118044;28;20508;-75
2022/08/19 11:58:52;;;;;;;3.47;1.73;;;22.70;99.90;;;;;;5119244;28;20081;-72
2022/08/19 12:01:19;;;;;;;3.80;2.65;;;23.20;99.90;;;;;;5099584;28;20024;-76
2022/08/19 12:03:47;;;;;;;4.18;2.47;;;23.20;99.90;;;;;;5119075;28;20019;-73
2022/08/19 12:06:16;;;;;;;8.30;4.53;;;23.60;99.90;;;;;;5119501;28;20019;-85
2022/08/19 12:08:45;;;;;;;3.00;1.58;;;23.50;99.90;;;;;;5122439;28;20028;-86
2022/08/19 12:11:13;;;;;;;3.63;2.65;;;24.10;99.90;;;;;;5117932;28;20027;-81
2022/08/19 12:13:39;;;;;;;3.75;1.90;;;24.70;99.90;;;;;;5124263;28;20051;-89
2022/08/19 12:16:15;;;;;;;1.08;1.08;;;24.70;99.90;;;;;;5122290;28;20054;-73
2022/08/19 12:18:50;;;;;;;3.10;2.15;;;24.70;99.90;;;;;;5127970;28;20099;-74
2022/08/19 12:21:21;;;;;;;3.20;2.45;;;24.70;99.90;;;;;;5117426;28;20020;-76
2022/08/19 12:23:49;;;;;;;2.55;1.73;;;25.30;99.90;;;;;;5119135;28;20193;-77
2022/08/19 12:26:15;;;;;;;4.05;2.50;;;25.10;99.90;;;;;;5097824;28;20354;-74
2022/08/19 12:28:42;;;;;;;3.63;2.53;;;24.90;99.90;;;;;;5116497;28;20152;-77
2022/08/19 12:31:08;;;;;;;2.58;1.98;;;25.90;99.90;;;;;;5097794;28;20047;-77
2022/08/19 12:33:34;;;;;;;1.55;1.42;;;27.20;99.90;;;;;;5096632;28;20015;-76
2022/08/19 12:36:04;;;;;;;2.90;1.23;;;27.30;99.90;;;;;;5113870;28;20036;-78
2022/08/19 12:38:30;;;;;;;1.77;1.67;;;26.20;99.90;;;;;;5116844;28;20025;-75
2022/08/19 12:40:56;;;;;;;5.88;2.05;;;24.60;99.90;;;;;;5115709;28;20032;-82
2022/08/19 12:43:21;;;;;;;4.22;2.15;;;23.40;99.90;;;;;;5116241;28;20070;-75
2022/08/19 12:45:47;;;;;;;5.40;2.90;;;22.40;99.90;;;;;;5116203;28;20024;-73
2022/08/19 12:48:15;;;;;;;5.70;2.47;;;21.60;99.90;;;;;;5115644;28;20016;-72
2022/08/19 12:50:42;;;;;;;4.20;2.55;;;20.90;99.90;;;;;;5120735;28;20026;-71
2022/08/19 12:53:08;;;;;;;2.05;1.85;;;20.40;99.90;;;;;;5120522;28;20039;-80
2022/08/19 12:55:33;;;;;;;4.18;2.50;;;20.10;99.90;;;;;;5116795;28;20046;-76
2022/08/19 12:58:01;;;;;;;6.85;3.45;;;19.90;99.90;;;;;;5115369;28;20114;-71
2022/08/19 13:00:27;;;;;;;5.47;3.35;;;19.80;99.90;;;;;;5114615;28;20380;-73
2022/08/19 13:02:53;;;;;;;2.42;1.83;;;19.80;99.90;;;;;;5097613;28;20051;-85
2022/08/19 13:05:23;;;;;;;4.65;3.10;;;19.90;99.90;;;;;;5115798;28;20026;-83
2022/08/19 13:07:51;;;;;;;4.57;2.72;;;20.00;99.90;;;;;;5097167;28;20024;-72
2022/08/19 13:10:20;;;;;;;6.45;2.88;;;20.00;99.90;;;;;;5115291;28;20019;-73
2022/08/19 13:12:47;;;;;;;3.88;2.55;;;20.00;99.90;;;;;;5115524;28;20368;-81
2022/08/19 13:15:15;;;;;;;2.60;2.22;;;20.10;99.90;;;;;;5115184;28;20434;-78